createdAt,value
2018-10-12T00:01:45.990Z,9.91
2018-10-12T00:07:40.949Z,10.58
2018-10-12T00:13:35.972Z,10.51
2018-10-12T00:19:30.959Z,10.49
2018-10-12T00:25:25.965Z,11.62
2018-10-12T00:31:20.957Z,12.08
2018-10-12T00:37:15.951Z,12
2018-10-12T00:43:10.998Z,10.92
2018-10-12T00:49:05.980Z,10.89
2018-10-12T00:55:00.971Z,10.28
2018-10-12T01:00:55.979Z,10.26
2018-10-12T01:06:51.002Z,10.39
2018-10-12T01:12:46.018Z,11.25
2018-10-12T01:18:40.992Z,9.62
2018-10-12T01:24:36.001Z,9.81
2018-10-12T01:30:30.997Z,9.69
2018-10-12T01:36:25.992Z,10.93
2018-10-12T01:42:21.059Z,10.91
2018-10-12T01:48:16.086Z,11.36
2018-10-12T01:54:11.017Z,11.16
2018-10-12T02:00:06.028Z,12.1
2018-10-12T02:06:01.010Z,11.67
2018-10-12T02:11:56.034Z,11.7
2018-10-12T02:17:51.055Z,12.29
2018-10-12T02:23:46.038Z,11.83
2018-10-12T02:29:41.041Z,12.16
2018-10-12T02:35:36.083Z,12.57
2018-10-12T02:41:31.081Z,12.34
2018-10-12T02:47:26.059Z,12.29
2018-10-12T02:53:21.067Z,13.62
2018-10-12T02:59:16.067Z,12.78
2018-10-12T03:05:11.067Z,13.53
2018-10-12T03:11:06.072Z,14.26
2018-10-12T03:17:01.115Z,14.56
2018-10-12T03:22:56.061Z,14.15
2018-10-12T03:28:51.081Z,13.71
2018-10-12T03:34:46.074Z,14.99
2018-10-12T03:40:41.139Z,15.22
2018-10-12T03:46:36.126Z,14.85
2018-10-12T03:52:31.104Z,15.3
2018-10-12T03:58:26.107Z,14.87
2018-10-12T04:04:21.101Z,13.79
2018-10-12T04:10:16.117Z,15.02
2018-10-12T04:16:11.139Z,16.17
2018-10-12T04:22:06.119Z,14.61
2018-10-12T04:28:01.102Z,15.66
2018-10-12T04:33:56.138Z,16.43
2018-10-12T04:39:51.142Z,17
2018-10-12T04:45:46.160Z,17.28
2018-10-12T04:51:41.180Z,17.48
2018-10-12T04:57:36.145Z,17.69
2018-10-12T05:03:31.170Z,18.03
2018-10-12T05:09:26.173Z,18.17
2018-10-12T05:15:21.151Z,16.93
2018-10-12T05:21:16.140Z,18.13
2018-10-12T05:27:11.211Z,18.16
2018-10-12T05:33:06.165Z,17.86
2018-10-12T05:39:01.161Z,18.89
2018-10-12T05:44:56.189Z,17.14
2018-10-12T05:50:51.255Z,19.78
2018-10-12T05:56:46.179Z,19.25
2018-10-12T06:02:41.208Z,18.79
2018-10-12T06:08:36.190Z,17.99
2018-10-12T06:14:31.207Z,21.03
2018-10-12T06:20:26.224Z,18.67
2018-10-12T06:26:21.183Z,23.53
2018-10-12T06:32:16.216Z,21.27
2018-10-12T06:38:11.213Z,20.98
2018-10-12T06:44:06.259Z,27.37
2018-10-12T06:50:01.221Z,33.79
2018-10-12T06:55:56.222Z,34.27
2018-10-12T07:01:51.268Z,28.71
2018-10-12T07:07:46.235Z,31.09
2018-10-12T07:13:41.322Z,31.38
2018-10-12T07:19:36.369Z,28.88
2018-10-12T07:25:31.241Z,25.4
2018-10-12T07:31:26.300Z,24.6
2018-10-12T07:37:21.293Z,22.22
2018-10-12T07:43:16.296Z,21.13
2018-10-12T07:49:11.242Z,18.93
2018-10-12T07:55:06.261Z,19
2018-10-12T08:01:01.262Z,19.4
2018-10-12T08:06:56.280Z,22.16
2018-10-12T08:12:51.297Z,20.02
2018-10-12T08:18:46.269Z,20.83
2018-10-12T08:24:41.309Z,40.02
2018-10-12T08:30:36.289Z,39.24
2018-10-12T08:36:31.433Z,23.26
2018-10-12T08:42:26.297Z,18.4
2018-10-12T08:48:21.320Z,16.82
2018-10-12T08:54:16.346Z,17.77
2018-10-12T09:00:11.359Z,15.96
2018-10-12T09:06:06.311Z,14.97
2018-10-12T09:12:01.340Z,17.08
2018-10-12T09:17:56.347Z,16.91
2018-10-12T09:23:51.347Z,20.11
2018-10-12T09:29:46.354Z,16.04
2018-10-12T09:35:41.393Z,14.15
2018-10-12T09:41:36.344Z,12.82
2018-10-12T09:47:31.383Z,11.7
2018-10-12T09:53:26.450Z,11.77
2018-10-12T09:59:21.378Z,11.3
2018-10-12T10:05:16.387Z,11.29
2018-10-12T10:11:11.371Z,11.06
2018-10-12T10:17:06.383Z,11.11
2018-10-12T10:23:01.392Z,12.54
2018-10-12T10:28:56.414Z,11.58
2018-10-12T10:34:51.402Z,11.96
2018-10-12T10:40:46.403Z,12.55
2018-10-12T10:46:41.403Z,12.59
2018-10-12T10:52:36.420Z,12.66
2018-10-12T10:58:31.417Z,12.67
2018-10-12T11:04:26.436Z,12.91
2018-10-12T11:10:21.470Z,13.2
2018-10-12T11:16:16.501Z,12.9
2018-10-12T11:22:11.434Z,13.35
2018-10-12T11:28:06.468Z,11.74
2018-10-12T11:34:01.434Z,11.84
2018-10-12T11:39:56.471Z,10.66
2018-10-12T11:45:51.529Z,11.39
2018-10-12T11:51:46.484Z,11.89
2018-10-12T11:57:41.469Z,12.41
2018-10-12T12:03:36.492Z,11.87
2018-10-12T12:09:31.505Z,11.3
2018-10-12T12:15:26.553Z,11.38
2018-10-12T12:21:21.476Z,10.42
2018-10-12T12:27:16.519Z,10.31
2018-10-12T12:33:11.495Z,12.18
2018-10-12T12:39:06.504Z,12.02
2018-10-12T12:45:01.502Z,12.29
2018-10-12T12:50:56.524Z,11.67
2018-10-12T12:56:51.514Z,11.55
2018-10-12T13:02:46.566Z,12.71
2018-10-12T13:08:41.538Z,12.31
2018-10-12T13:14:36.550Z,10.51
2018-10-12T13:20:31.583Z,10.51
2018-10-12T13:26:26.671Z,11.36
2018-10-12T13:32:21.542Z,10.55
2018-10-12T13:38:16.601Z,11.58
2018-10-12T13:44:11.559Z,10.82
2018-10-12T13:50:06.593Z,10.97
2018-10-12T13:56:01.548Z,11.46
2018-10-12T14:01:56.587Z,11.49
2018-10-12T14:07:51.579Z,12.07
2018-10-12T14:13:46.584Z,11.52
2018-10-12T14:19:41.569Z,11.87
2018-10-12T14:25:36.592Z,11.24
2018-10-12T14:31:31.699Z,11.59
2018-10-12T14:37:26.596Z,12.2
2018-10-12T14:43:21.605Z,13.02
2018-10-12T14:49:16.607Z,11.31
2018-10-12T14:55:11.606Z,11.7
2018-10-12T15:01:06.653Z,11.05
2018-10-12T15:07:01.619Z,11.55
2018-10-12T15:12:56.638Z,12.04
2018-10-12T15:18:51.633Z,10.43
2018-10-12T15:24:46.689Z,11.21
2018-10-12T15:30:41.620Z,11.45
2018-10-12T15:36:36.639Z,11.29
2018-10-12T15:42:31.660Z,10.68
2018-10-12T15:48:26.700Z,13.35
2018-10-12T15:54:21.651Z,12.09
2018-10-12T16:00:16.734Z,12.94
2018-10-12T16:06:11.712Z,14.29
2018-10-12T16:12:06.682Z,14.97
2018-10-12T16:18:01.692Z,14.19
2018-10-12T16:23:56.686Z,14.1
2018-10-12T16:29:51.703Z,14.58
2018-10-12T16:35:46.816Z,13.3
2018-10-12T16:41:41.705Z,13.38
2018-10-12T16:47:36.687Z,13.72
2018-10-12T16:53:31.744Z,13.7
2018-10-12T16:59:26.714Z,14.8
2018-10-12T17:05:21.768Z,14.56
2018-10-12T17:11:16.729Z,15.43
2018-10-12T17:17:11.727Z,14.52
2018-10-12T17:23:06.725Z,16.25
2018-10-12T17:29:01.743Z,17.43
2018-10-12T17:34:56.793Z,15.72
2018-10-12T17:40:51.761Z,15.94
2018-10-12T17:46:46.775Z,15.42
2018-10-12T17:52:41.770Z,15.98
2018-10-12T17:58:36.770Z,16.93
2018-10-12T18:04:31.795Z,15.41
2018-10-12T18:10:26.773Z,14.55
2018-10-12T18:16:21.760Z,13.98
2018-10-12T18:22:16.804Z,14.86
2018-10-12T18:28:11.783Z,15.99
2018-10-12T18:34:06.788Z,15.83
2018-10-12T18:40:01.783Z,14.94
2018-10-12T18:45:56.796Z,15.7
2018-10-12T18:51:51.791Z,14.85
2018-10-12T18:57:46.871Z,14.35
2018-10-12T19:03:41.829Z,14.83
2018-10-12T19:09:36.816Z,14.63
2018-10-12T19:15:31.849Z,14.45
2018-10-12T19:21:26.824Z,14.67
2018-10-12T19:27:21.844Z,14.37
2018-10-12T19:33:16.824Z,14.93
2018-10-12T19:39:11.823Z,14.56
2018-10-12T19:45:06.830Z,14.48
2018-10-12T19:51:01.851Z,14.84
2018-10-12T19:56:56.864Z,15.88
2018-10-12T20:02:51.913Z,17.3
2018-10-12T20:08:46.877Z,16.79
2018-10-12T20:14:41.899Z,15.33
2018-10-12T20:20:36.854Z,15.19
2018-10-12T20:26:31.868Z,15.52
2018-10-12T20:32:26.878Z,15.34
2018-10-12T20:38:21.871Z,18.68
2018-10-12T20:44:16.890Z,15.47
2018-10-12T20:50:11.932Z,15.79
2018-10-12T20:56:06.893Z,15.89
2018-10-12T21:02:01.903Z,14.43
2018-10-12T21:07:56.918Z,14.33
2018-10-12T21:13:51.972Z,13.7
2018-10-12T21:19:46.931Z,13.06
2018-10-12T21:25:41.939Z,13.16
2018-10-12T21:31:36.903Z,13.29
2018-10-12T21:37:31.902Z,14.03
2018-10-12T21:43:26.940Z,15.27
2018-10-12T21:49:21.932Z,14.69
2018-10-12T21:55:16.918Z,17.22
2018-10-12T22:01:11.952Z,14.79
2018-10-12T22:07:06.972Z,14.61
2018-10-12T22:13:01.986Z,13.71
2018-10-12T22:18:56.980Z,16.08
2018-10-12T22:24:51.962Z,15.89
2018-10-12T22:30:46.962Z,15.85
2018-10-12T22:36:41.972Z,15.28
2018-10-12T22:42:37.006Z,15.61
2018-10-12T22:48:31.974Z,16.86
2018-10-12T22:54:26.968Z,15.86
2018-10-12T23:00:21.962Z,16.59
2018-10-12T23:06:16.975Z,15.58
2018-10-12T23:12:12.043Z,14.82
2018-10-12T23:18:07.000Z,14.7
2018-10-12T23:24:01.990Z,15.83
2018-10-12T23:29:57.003Z,15.61
2018-10-12T23:35:52.017Z,15.37
2018-10-12T23:41:47.051Z,16.57
2018-10-12T23:47:42.020Z,18.17
2018-10-12T23:53:37.081Z,18.33
2018-10-12T23:59:32.012Z,17.87
